Mac Dill Air Force Base
KMCF : now visible

Airfield :











YOU CAN JOIN US ON...

 
LOGIN :

Register | Disclaimer

   EN    FR    IT 

 









Legend :    VFR   Marginal VFR   IFR   Intensive IFR   Very Intensive IFR
Visi :
Ceiling :
>= 8 km
>= 3000ft
5 to 8 km
1000 to 3000 ft
1500m to 5 km
500 to 1000 ft
800 to 1500m
200 to 500 ft
< 800m
< 200 ft
Symbols :   Thunderstorms  Fog  Heavy snow  Heavy precipitations  Wind > 20 kt






- Airport Elevation : 14 ft


KMCF - Mac Dill Air Force Base

CURRENT METAR :
  • 261256Z AUTO 06007KT 10SM CLR 26/19 A3004 RMK AO2 SLP175 T02570186 FZRANO $

EXPIRED METARs :
  • 261156Z AUTO 07006KT 10SM CLR 23/19 A3003 RMK AO2 SLP172 T02330188 10251 20227 52012 FZRANO $
  • 261136Z AUTO 07004KT 10SM SCT018 23/18 A3003 RMK AO2 SLP172 FZRANO $
  • 261111Z AUTO 05004KT 10SM BKN018 23/18 A3002 RMK AO2 BKN V FEW SLP168 FZRANO $
  • 261056Z AUTO 06003KT 10SM CLR 23/18 A3001 RMK AO2 SLP165 T02340178 FZRANO $

TAF TAF KMCF
Valid from the 26 at 09:00 until the 27 at 15:00 UTC


260900Z 2609/2715 08006KT 9999 FEW020 QNH2997INS
BECMG 2703/2704 09009KT 9999 SKC QNH3009INS TX32/2619Z TN22/2708Z
KZMA FIR / North America



MET'MAP, your aeronautical weather chart ! - Copyright ORBIFLY December 2007 - Disclaimer

ORBIFLY MET'MAP TEAM :

Programming & Development : Alexandra Zaïnal
Concept & original design : Baudouin d'Aumeries
Assistance for programming : Marc-Olivier Méhu
Technical & hardware support : Manuel Goepfert

Contact : metmap@orbifly.com




SOURCES & CREDITS :

   NOAA       Earth
Advisory